createdAt,value
2019-05-06T00:00:30.420Z,17.54
2019-05-06T00:02:58.926Z,17.40
2019-05-06T00:05:27.495Z,17.49
2019-05-06T00:07:55.986Z,17.37
2019-05-06T00:10:28.490Z,17.42
2019-05-06T00:12:57.639Z,17.49
2019-05-06T00:15:26.922Z,17.47
2019-05-06T00:17:55.399Z,17.38
2019-05-06T00:20:24.542Z,17.36
2019-05-06T00:22:56.393Z,17.37
2019-05-06T00:25:54.309Z,17.38
2019-05-06T00:28:28.299Z,17.25
2019-05-06T00:31:09.536Z,17.31
2019-05-06T00:33:28.616Z,17.34
2019-05-06T00:35:58.804Z,17.34
2019-05-06T00:38:27.310Z,17.39
2019-05-06T00:40:59.174Z,17.29
2019-05-06T00:43:27.810Z,17.16
2019-05-06T00:45:56.398Z,17.19
2019-05-06T00:48:25.135Z,17.19
2019-05-06T00:50:53.751Z,17.14
2019-05-06T00:53:24.468Z,17.10
2019-05-06T00:55:53.786Z,17.13
2019-05-06T00:58:23.847Z,17.31
2019-05-06T01:00:53.888Z,17.13
2019-05-06T01:03:23.787Z,17.02
2019-05-06T01:05:54.272Z,16.81
2019-05-06T01:08:23.977Z,16.88
2019-05-06T01:10:54.560Z,16.83
2019-05-06T01:13:37.379Z,16.82
2019-05-06T01:16:06.400Z,16.85
2019-05-06T01:18:34.986Z,16.87
2019-05-06T01:21:09.479Z,16.74
2019-05-06T01:23:41.133Z,16.72
2019-05-06T01:26:09.767Z,16.89
2019-05-06T01:28:38.395Z,16.74
2019-05-06T01:31:06.896Z,16.61
2019-05-06T01:33:35.452Z,16.61
2019-05-06T01:36:04.576Z,16.73
2019-05-06T01:38:53.526Z,16.70
2019-05-06T01:41:46.374Z,16.57
2019-05-06T01:44:14.780Z,16.73
2019-05-06T01:46:44.763Z,16.70
2019-05-06T01:49:13.770Z,16.68
2019-05-06T01:51:43.799Z,16.65
2019-05-06T01:54:14.173Z,16.65
2019-05-06T01:56:44.464Z,16.66
2019-05-06T01:59:13.981Z,16.68
2019-05-06T02:01:54.846Z,16.57
2019-05-06T02:04:13.806Z,16.60
2019-05-06T02:06:43.799Z,16.49
2019-05-06T02:09:16.277Z,16.51
2019-05-06T02:11:47.745Z,16.48
2019-05-06T02:14:15.436Z,16.54
2019-05-06T02:16:43.931Z,16.48
2019-05-06T02:19:14.687Z,16.52
2019-05-06T02:22:08.236Z,16.50
2019-05-06T02:24:53.636Z,16.45
2019-05-06T02:27:24.260Z,16.52
2019-05-06T02:30:00.901Z,16.61
2019-05-06T02:32:51.721Z,16.53
2019-05-06T02:35:26.412Z,16.54
2019-05-06T02:37:54.983Z,16.59
2019-05-06T02:40:25.810Z,16.59
2019-05-06T02:42:55.151Z,16.47
2019-05-06T02:45:24.463Z,16.50
2019-05-06T02:48:13.948Z,16.39
2019-05-06T02:51:17.541Z,16.40
2019-05-06T02:53:46.223Z,16.14
2019-05-06T02:56:14.795Z,15.90
2019-05-06T02:58:43.804Z,16.07
2019-05-06T03:01:13.547Z,16.12
2019-05-06T03:03:43.676Z,16.09
2019-05-06T03:06:13.267Z,16.14
2019-05-06T03:08:43.432Z,16.21
2019-05-06T03:11:13.549Z,16.30
2019-05-06T03:13:43.723Z,16.28
2019-05-06T03:16:14.237Z,16.37
2019-05-06T03:18:43.457Z,16.07
2019-05-06T03:21:37.137Z,15.75
2019-05-06T03:24:24.163Z,15.74
2019-05-06T03:26:57.001Z,15.78
2019-05-06T03:29:25.332Z,15.78
2019-05-06T03:31:56.272Z,15.84
2019-05-06T03:34:49.479Z,15.93
2019-05-06T03:36:56.551Z,16.02
2019-05-06T03:39:25.562Z,15.74
2019-05-06T03:41:54.060Z,15.74
2019-05-06T03:44:23.986Z,15.83
2019-05-06T03:47:13.672Z,15.91
2019-05-06T03:49:44.675Z,15.87
2019-05-06T03:52:13.676Z,15.76
2019-05-06T03:54:45.342Z,15.91
2019-05-06T03:57:14.047Z,15.80
2019-05-06T03:59:43.792Z,15.93
2019-05-06T04:02:13.358Z,15.98
2019-05-06T04:04:43.931Z,16.10
2019-05-06T04:07:14.041Z,16.14
2019-05-06T04:09:44.195Z,16.14
2019-05-06T04:12:13.635Z,16.15
2019-05-06T04:14:43.338Z,16.17
2019-05-06T04:17:23.633Z,16.15
2019-05-06T04:19:55.957Z,16.23
2019-05-06T04:22:37.478Z,16.24
2019-05-06T04:25:34.604Z,16.20
2019-05-06T04:28:12.873Z,16.18
2019-05-06T04:30:42.810Z,16.33
2019-05-06T04:33:16.882Z,16.40
2019-05-06T04:35:43.099Z,16.48
2019-05-06T04:38:13.914Z,16.48
2019-05-06T04:40:43.987Z,16.46
2019-05-06T04:43:13.526Z,16.53
2019-05-06T04:45:43.307Z,16.52
2019-05-06T04:48:14.405Z,16.71
2019-05-06T04:50:44.294Z,16.70
2019-05-06T04:53:13.812Z,16.80
2019-05-06T04:55:43.869Z,16.80
2019-05-06T04:58:13.512Z,16.89
2019-05-06T05:00:44.574Z,17.09
2019-05-06T05:03:13.928Z,17.29
2019-05-06T05:05:44.765Z,17.43
2019-05-06T05:08:13.788Z,17.41
2019-05-06T05:10:53.014Z,17.62
2019-05-06T05:13:43.338Z,17.82
2019-05-06T05:16:33.179Z,17.82
2019-05-06T05:19:05.120Z,17.84
2019-05-06T05:21:33.824Z,17.97
2019-05-06T05:24:02.418Z,17.98
2019-05-06T05:26:32.211Z,18.08
2019-05-06T05:29:02.810Z,18.12
2019-05-06T05:31:33.195Z,18.17
2019-05-06T05:34:02.315Z,18.22
2019-05-06T05:36:32.865Z,18.39
2019-05-06T05:39:03.321Z,18.53
2019-05-06T05:41:33.129Z,18.63
2019-05-06T05:44:13.754Z,18.51
2019-05-06T05:46:43.876Z,18.35
2019-05-06T05:49:42.067Z,18.35
2019-05-06T05:52:12.747Z,18.36
2019-05-06T05:54:42.371Z,18.25
2019-05-06T05:57:11.884Z,18.26
2019-05-06T05:59:42.207Z,18.42
2019-05-06T06:02:12.840Z,18.64
2019-05-06T06:04:53.722Z,18.78
2019-05-06T06:07:12.499Z,18.86
2019-05-06T06:09:49.867Z,19.02
2019-05-06T06:12:18.482Z,19.13
2019-05-06T06:15:06.531Z,19.24
2019-05-06T06:17:51.952Z,19.36
2019-05-06T06:20:58.402Z,19.44
2019-05-06T06:23:33.543Z,19.44
2019-05-06T06:26:04.055Z,19.52
2019-05-06T06:28:33.354Z,19.49
2019-05-06T06:31:12.106Z,19.51
2019-05-06T06:33:42.849Z,19.65
2019-05-06T06:36:29.744Z,19.67
2019-05-06T06:39:12.449Z,19.82
2019-05-06T06:41:42.373Z,19.90
2019-05-06T06:44:14.922Z,19.97
2019-05-06T06:46:43.636Z,20.05
2019-05-06T06:49:12.726Z,20.08
2019-05-06T06:51:42.489Z,20.12
2019-05-06T06:54:12.321Z,20.21
2019-05-06T06:57:01.890Z,20.24
2019-05-06T06:59:33.200Z,20.26
2019-05-06T07:02:07.476Z,20.28
2019-05-06T07:04:43.105Z,20.47
2019-05-06T07:07:13.039Z,20.64
2019-05-06T07:09:42.043Z,20.70
2019-05-06T07:12:13.189Z,20.65
2019-05-06T07:14:42.819Z,20.58
2019-05-06T07:17:13.336Z,20.36
2019-05-06T07:19:47.640Z,20.57
2019-05-06T07:22:16.156Z,20.67
2019-05-06T07:24:44.847Z,20.80
2019-05-06T07:27:18.405Z,20.82
2019-05-06T07:29:48.802Z,20.79
2019-05-06T07:32:17.441Z,20.94
2019-05-06T07:34:46.040Z,20.95
2019-05-06T07:37:14.613Z,21.18
2019-05-06T07:39:43.750Z,21.36
2019-05-06T07:42:18.310Z,21.35
2019-05-06T07:45:14.439Z,21.42
2019-05-06T07:47:48.361Z,21.78
2019-05-06T07:50:16.875Z,21.77
2019-05-06T07:53:03.609Z,21.53
2019-05-06T07:55:32.765Z,21.51
2019-05-06T07:58:02.942Z,21.53
2019-05-06T08:00:32.780Z,21.51
2019-05-06T08:03:02.522Z,21.51
2019-05-06T08:05:32.475Z,21.59
2019-05-06T08:08:03.530Z,21.71
2019-05-06T08:10:33.149Z,21.76
2019-05-06T08:13:02.796Z,21.72
2019-05-06T08:15:32.565Z,21.65
2019-05-06T08:18:03.361Z,21.77
2019-05-06T08:20:38.709Z,22.10
2019-05-06T08:23:28.315Z,22.06
2019-05-06T08:26:09.204Z,21.79
2019-05-06T08:28:38.563Z,21.53
2019-05-06T08:30:59.613Z,21.47
2019-05-06T08:33:28.217Z,21.46
2019-05-06T08:36:08.861Z,21.41
2019-05-06T08:38:28.072Z,21.51
2019-05-06T08:40:56.670Z,21.44
2019-05-06T08:43:25.189Z,21.48
2019-05-06T08:45:53.726Z,21.40
2019-05-06T08:48:22.331Z,21.26
2019-05-06T08:50:56.249Z,21.17
2019-05-06T08:53:37.982Z,21.47
2019-05-06T08:56:08.078Z,21.69
2019-05-06T08:58:45.882Z,21.87
2019-05-06T09:01:38.159Z,21.75
2019-05-06T09:04:12.492Z,21.51
2019-05-06T09:06:37.462Z,21.29
2019-05-06T09:09:07.636Z,21.23
2019-05-06T09:11:36.389Z,20.99
2019-05-06T09:14:05.003Z,20.88
2019-05-06T09:16:33.515Z,20.60
2019-05-06T09:19:04.290Z,20.79
2019-05-06T09:21:33.566Z,20.97
2019-05-06T09:24:02.546Z,20.75
2019-05-06T09:26:43.137Z,20.82
2019-05-06T09:29:18.333Z,20.99
2019-05-06T09:31:52.053Z,20.93
2019-05-06T09:34:26.997Z,21.07
2019-05-06T09:37:13.303Z,20.98
2019-05-06T09:39:44.117Z,20.91
2019-05-06T09:42:13.597Z,20.81
2019-05-06T09:44:43.003Z,20.89
2019-05-06T09:47:43.137Z,20.93
2019-05-06T09:50:14.756Z,20.93
2019-05-06T09:52:43.858Z,20.98
2019-05-06T09:55:35.541Z,21.04
2019-05-06T09:58:05.621Z,21.13
2019-05-06T10:00:38.976Z,21.25
2019-05-06T10:03:07.496Z,21.23
2019-05-06T10:05:36.077Z,21.43
2019-05-06T10:08:05.009Z,21.66
2019-05-06T10:10:33.641Z,21.68
2019-05-06T10:13:02.713Z,21.73
2019-05-06T10:15:32.629Z,22.14
2019-05-06T10:18:07.871Z,22.26
2019-05-06T10:20:44.965Z,22.49
2019-05-06T10:23:13.859Z,22.45
2019-05-06T10:25:44.028Z,21.98
2019-05-06T10:28:27.168Z,21.99
2019-05-06T10:30:55.804Z,22.08
2019-05-06T10:33:25.646Z,22.17
2019-05-06T10:35:56.250Z,22.03
2019-05-06T10:38:52.740Z,22.06
2019-05-06T10:41:25.331Z,22.18
2019-05-06T10:44:14.183Z,22.07
2019-05-06T10:46:43.134Z,22.10
2019-05-06T10:49:13.169Z,21.92
2019-05-06T10:52:02.200Z,21.96
2019-05-06T10:54:31.865Z,22.01
2019-05-06T10:57:32.860Z,21.95
2019-05-06T11:00:01.642Z,21.90
2019-05-06T11:02:58.941Z,21.93
2019-05-06T11:05:27.435Z,21.90
2019-05-06T11:07:56.021Z,22.00
2019-05-06T11:10:29.932Z,21.87
2019-05-06T11:12:55.208Z,21.66
2019-05-06T11:15:23.701Z,21.61
2019-05-06T11:17:52.196Z,21.54
2019-05-06T11:20:24.118Z,21.61
2019-05-06T11:22:53.333Z,21.54
2019-05-06T11:25:23.030Z,21.50
2019-05-06T11:27:52.644Z,21.47
2019-05-06T11:30:39.754Z,21.48
2019-05-06T11:33:27.910Z,21.44
2019-05-06T11:36:02.242Z,21.25
2019-05-06T11:38:32.260Z,20.91
2019-05-06T11:41:01.776Z,20.54
2019-05-06T11:43:32.481Z,20.56
2019-05-06T11:46:01.555Z,20.71
2019-05-06T11:48:32.614Z,20.54
2019-05-06T11:51:03.270Z,20.29
2019-05-06T11:53:32.631Z,20.43
2019-05-06T11:56:02.186Z,20.53
2019-05-06T11:58:56.128Z,20.32
2019-05-06T12:01:53.368Z,20.21
2019-05-06T12:04:23.229Z,20.26
2019-05-06T12:07:09.994Z,20.21
2019-05-06T12:09:23.923Z,20.04
2019-05-06T12:11:53.058Z,20.20
2019-05-06T12:14:22.794Z,20.40
2019-05-06T12:16:54.848Z,20.80
2019-05-06T12:19:22.655Z,21.10
2019-05-06T12:21:51.711Z,20.78
2019-05-06T12:24:20.227Z,20.84
2019-05-06T12:26:48.804Z,20.96
2019-05-06T12:29:17.518Z,21.17
2019-05-06T12:31:52.819Z,21.43
2019-05-06T12:34:20.884Z,21.42
2019-05-06T12:36:52.898Z,21.24
2019-05-06T12:39:44.079Z,21.40
2019-05-06T12:42:23.754Z,21.61
2019-05-06T12:45:14.681Z,21.71
2019-05-06T12:47:53.422Z,21.65
2019-05-06T12:50:22.755Z,21.62
2019-05-06T12:52:52.633Z,21.71
2019-05-06T12:55:25.313Z,21.82
2019-05-06T12:57:54.523Z,21.89
2019-05-06T13:00:24.329Z,21.78
2019-05-06T13:02:53.313Z,21.75
2019-05-06T13:05:22.315Z,21.67
2019-05-06T13:07:52.718Z,21.77
2019-05-06T13:10:23.268Z,21.94
2019-05-06T13:13:04.120Z,22.08
2019-05-06T13:15:32.913Z,22.07
2019-05-06T13:18:06.440Z,21.93
2019-05-06T13:20:34.184Z,21.88
2019-05-06T13:23:20.096Z,21.98
2019-05-06T13:25:44.839Z,22.08
2019-05-06T13:28:13.440Z,22.06
2019-05-06T13:30:43.316Z,21.99
2019-05-06T13:33:20.658Z,21.96
2019-05-06T13:35:49.655Z,22.09
2019-05-06T13:38:18.259Z,22.13
2019-05-06T13:40:53.996Z,22.19
2019-05-06T13:43:46.372Z,22.21
2019-05-06T13:46:23.155Z,22.05
2019-05-06T13:49:13.369Z,22.00
2019-05-06T13:51:45.798Z,22.09
2019-05-06T13:54:16.162Z,21.90
2019-05-06T13:56:45.253Z,21.87
2019-05-06T13:59:15.336Z,21.91
2019-05-06T14:02:16.284Z,21.89
2019-05-06T14:04:45.588Z,21.92
2019-05-06T14:07:14.285Z,21.82
2019-05-06T14:09:43.793Z,21.96
2019-05-06T14:12:12.526Z,21.92
2019-05-06T14:14:43.153Z,22.01
2019-05-06T14:17:12.788Z,21.92
2019-05-06T14:19:42.875Z,21.94
2019-05-06T14:22:12.674Z,21.89
2019-05-06T14:24:46.289Z,21.84
2019-05-06T14:27:17.665Z,21.99
2019-05-06T14:29:59.780Z,21.91
2019-05-06T14:32:28.286Z,21.84
2019-05-06T14:34:57.071Z,21.87
2019-05-06T14:37:25.597Z,21.73
2019-05-06T14:39:59.493Z,21.76
2019-05-06T14:42:26.416Z,21.80
2019-05-06T14:44:55.115Z,21.79
2019-05-06T14:47:26.005Z,21.75
2019-05-06T14:49:54.603Z,21.76
2019-05-06T14:52:23.125Z,21.68
2019-05-06T14:54:53.890Z,21.69
2019-05-06T14:57:23.429Z,21.67
2019-05-06T14:59:55.470Z,21.58
2019-05-06T15:02:26.647Z,21.53
2019-05-06T15:04:55.642Z,21.32
2019-05-06T15:07:24.151Z,21.32
2019-05-06T15:10:02.394Z,21.40
2019-05-06T15:12:23.593Z,21.22
2019-05-06T15:14:52.755Z,21.15
2019-05-06T15:17:22.958Z,21.10
2019-05-06T15:19:52.903Z,21.02
2019-05-06T15:22:22.558Z,20.96
2019-05-06T15:24:53.750Z,21.07
2019-05-06T15:27:22.856Z,20.79
2019-05-06T15:29:54.777Z,20.61
2019-05-06T15:32:32.841Z,20.36
2019-05-06T15:35:26.977Z,20.25
2019-05-06T15:38:02.230Z,20.25
2019-05-06T15:40:35.954Z,20.19
2019-05-06T15:43:02.294Z,20.11
2019-05-06T15:45:32.507Z,19.98
2019-05-06T15:48:02.675Z,20.10
2019-05-06T15:50:32.895Z,20.08
2019-05-06T15:53:01.986Z,19.83
2019-05-06T15:55:32.658Z,19.69
2019-05-06T15:58:03.424Z,19.58
2019-05-06T16:00:33.089Z,19.55
2019-05-06T16:03:02.662Z,19.57
2019-05-06T16:05:34.352Z,19.62
2019-05-06T16:08:02.849Z,19.42
2019-05-06T16:10:37.870Z,19.52
2019-05-06T16:13:02.524Z,19.49
2019-05-06T16:15:33.517Z,19.55
2019-05-06T16:18:04.080Z,19.73
2019-05-06T16:20:33.264Z,19.67
2019-05-06T16:23:27.597Z,19.35
2019-05-06T16:25:56.185Z,19.02
2019-05-06T16:28:24.929Z,18.66
2019-05-06T16:30:53.710Z,18.38
2019-05-06T16:33:22.631Z,18.25
2019-05-06T16:35:52.255Z,18.05
2019-05-06T16:38:23.023Z,18.02
2019-05-06T16:41:02.196Z,18.16
2019-05-06T16:43:22.283Z,18.06
2019-05-06T16:45:53.190Z,18.33
2019-05-06T16:48:22.567Z,18.15
2019-05-06T16:50:51.575Z,18.05
2019-05-06T16:53:20.382Z,18.19
2019-05-06T16:56:17.750Z,17.90
2019-05-06T16:58:52.686Z,17.41
2019-05-06T17:01:22.125Z,17.18
2019-05-06T17:04:09.751Z,17.17
2019-05-06T17:06:39.374Z,16.99
2019-05-06T17:09:20.068Z,16.98
2019-05-06T17:11:42.490Z,16.98
2019-05-06T17:14:12.277Z,17.03
2019-05-06T17:16:42.391Z,17.02
2019-05-06T17:19:12.672Z,16.94
2019-05-06T17:21:42.418Z,17.06
2019-05-06T17:24:13.102Z,16.84
2019-05-06T17:26:42.590Z,16.92
2019-05-06T17:29:19.338Z,17.20
2019-05-06T17:32:02.694Z,17.07
2019-05-06T17:34:34.250Z,16.80
2019-05-06T17:37:09.538Z,17.06
2019-05-06T17:39:38.217Z,16.98
2019-05-06T17:42:06.945Z,17.03
2019-05-06T17:44:35.564Z,17.18
2019-05-06T17:47:22.920Z,16.90
2019-05-06T17:49:52.918Z,17.11
2019-05-06T17:52:22.476Z,17.06
2019-05-06T17:54:52.803Z,17.01
2019-05-06T17:57:22.499Z,16.98
2019-05-06T17:59:52.813Z,16.86
2019-05-06T18:02:23.589Z,17.00
2019-05-06T18:04:53.274Z,17.09
2019-05-06T18:07:22.450Z,17.03
2019-05-06T18:09:52.197Z,17.15
2019-05-06T18:12:22.607Z,17.18
2019-05-06T18:14:54.115Z,17.04
2019-05-06T18:17:22.812Z,17.12
2019-05-06T18:19:51.363Z,17.02
2019-05-06T18:22:22.612Z,17.19
2019-05-06T18:24:52.566Z,16.96
2019-05-06T18:27:22.646Z,17.04
2019-05-06T18:29:53.244Z,16.93
2019-05-06T18:32:23.411Z,16.94
2019-05-06T18:34:55.202Z,16.77
2019-05-06T18:37:25.397Z,16.95
2019-05-06T18:39:54.196Z,16.99
2019-05-06T18:42:23.818Z,16.89
2019-05-06T18:44:52.477Z,16.93
2019-05-06T18:47:21.173Z,16.79
2019-05-06T18:49:52.264Z,16.73
2019-05-06T18:52:22.881Z,16.71
2019-05-06T18:54:52.641Z,16.59
2019-05-06T18:57:22.654Z,16.60
2019-05-06T18:59:53.492Z,16.50
2019-05-06T19:02:23.013Z,16.44
2019-05-06T19:05:07.971Z,16.41
2019-05-06T19:07:37.365Z,16.43
2019-05-06T19:10:12.852Z,16.26
2019-05-06T19:12:41.936Z,16.48
2019-05-06T19:15:12.624Z,16.29
2019-05-06T19:17:44.078Z,16.34
2019-05-06T19:20:12.753Z,16.37
2019-05-06T19:22:43.466Z,16.17
2019-05-06T19:25:14.628Z,16.19
2019-05-06T19:27:45.231Z,16.04
2019-05-06T19:30:14.208Z,15.93
2019-05-06T19:32:45.365Z,15.90
2019-05-06T19:35:14.415Z,15.69
2019-05-06T19:37:43.349Z,15.76
2019-05-06T19:40:12.637Z,15.76
2019-05-06T19:42:46.985Z,15.73
2019-05-06T19:45:13.018Z,15.68
2019-05-06T19:47:42.533Z,15.74
2019-05-06T19:50:11.335Z,15.54
2019-05-06T19:52:42.039Z,15.41
2019-05-06T19:55:12.370Z,15.36
2019-05-06T19:57:43.084Z,15.19
2019-05-06T20:00:12.541Z,15.26
2019-05-06T20:02:42.960Z,14.99
2019-05-06T20:05:22.658Z,14.99
2019-05-06T20:08:07.353Z,15.03
2019-05-06T20:10:58.479Z,14.95
2019-05-06T20:13:27.043Z,14.97
2019-05-06T20:15:55.633Z,14.95
2019-05-06T20:18:24.121Z,14.86
2019-05-06T20:20:52.948Z,14.85
2019-05-06T20:23:23.195Z,14.88
2019-05-06T20:25:52.211Z,14.99
2019-05-06T20:28:22.779Z,15.03
2019-05-06T20:30:52.889Z,14.81
2019-05-06T20:33:22.073Z,14.88
2019-05-06T20:35:52.546Z,14.91
2019-05-06T20:38:23.196Z,14.94
2019-05-06T20:40:51.798Z,14.80
2019-05-06T20:43:23.741Z,14.45
2019-05-06T20:45:52.137Z,14.46
2019-05-06T20:48:23.328Z,14.49
2019-05-06T20:50:52.426Z,14.35
2019-05-06T20:53:23.215Z,14.39
2019-05-06T20:55:53.183Z,14.55
2019-05-06T20:58:23.122Z,14.67
2019-05-06T21:00:52.333Z,14.55
2019-05-06T21:03:22.163Z,14.57
2019-05-06T21:05:51.394Z,14.76
2019-05-06T21:08:21.932Z,14.74
2019-05-06T21:10:52.880Z,14.64
2019-05-06T21:13:31.758Z,14.58
2019-05-06T21:15:52.979Z,14.54
2019-05-06T21:18:22.914Z,14.48
2019-05-06T21:20:52.105Z,14.55
2019-05-06T21:23:22.705Z,14.38
2019-05-06T21:25:52.332Z,14.19
2019-05-06T21:28:23.571Z,14.11
2019-05-06T21:30:52.362Z,13.95
2019-05-06T21:33:22.124Z,13.88
2019-05-06T21:35:52.225Z,13.87
2019-05-06T21:38:22.670Z,14.10
2019-05-06T21:40:52.588Z,14.00
2019-05-06T21:43:22.655Z,13.64
2019-05-06T21:45:51.502Z,13.98
2019-05-06T21:48:22.079Z,13.84
2019-05-06T21:50:52.246Z,13.58
2019-05-06T21:53:22.905Z,13.55
2019-05-06T21:55:52.519Z,13.68
2019-05-06T21:58:23.203Z,13.43
2019-05-06T22:01:03.887Z,13.65
2019-05-06T22:03:32.945Z,13.61
2019-05-06T22:06:02.392Z,13.43
2019-05-06T22:08:32.849Z,13.47
2019-05-06T22:11:02.948Z,13.56
2019-05-06T22:13:33.262Z,13.64
2019-05-06T22:16:04.649Z,13.75
2019-05-06T22:18:32.425Z,13.54
2019-05-06T22:21:23.059Z,13.55
2019-05-06T22:23:57.010Z,13.37
2019-05-06T22:26:25.839Z,13.09
2019-05-06T22:28:55.005Z,13.28
2019-05-06T22:31:24.572Z,13.20
2019-05-06T22:33:53.449Z,13.22
2019-05-06T22:36:22.742Z,13.12
2019-05-06T22:38:53.073Z,13.12
2019-05-06T22:41:24.840Z,13.21
2019-05-06T22:43:53.172Z,13.14
2019-05-06T22:46:23.405Z,13.20
2019-05-06T22:48:54.521Z,13.26
2019-05-06T22:51:23.426Z,13.09
2019-05-06T22:53:53.192Z,13.20
2019-05-06T22:56:22.863Z,13.12
2019-05-06T22:58:52.396Z,13.14
2019-05-06T23:01:58.490Z,13.08
2019-05-06T23:04:28.912Z,13.13
2019-05-06T23:06:57.398Z,13.12
2019-05-06T23:09:25.869Z,13.11
2019-05-06T23:11:54.466Z,13.19
2019-05-06T23:14:30.774Z,13.07
2019-05-06T23:16:53.378Z,12.96
2019-05-06T23:19:24.285Z,13.12
2019-05-06T23:21:53.287Z,13.11
2019-05-06T23:24:22.494Z,13.04
2019-05-06T23:26:54.285Z,13.11
2019-05-06T23:29:22.441Z,13.06
2019-05-06T23:31:52.214Z,12.95
2019-05-06T23:34:22.948Z,13.03
2019-05-06T23:37:17.158Z,13.05
2019-05-06T23:40:22.386Z,12.95
2019-05-06T23:43:27.848Z,12.92
2019-05-06T23:46:32.828Z,12.92
2019-05-06T23:49:39.453Z,12.71
2019-05-06T23:52:44.385Z,12.88
2019-05-06T23:55:51.816Z,12.63
2019-05-06T23:58:18.930Z,12.81
